Météo Cheval Rigon

 

Relevés d'aujourd'hui



 

29/5/20
Time         Wind Dir   Wind Spd  Wind Gust   Humidity       Temp   Tot Rain Wind Chill  Dew Point   Barom SL Humidity R Temp Out R Tot Rain R   WindCh R   Dew Pt R SL Barom R Temp Out H Temp Out L  DailyRain   HourRain   24HrRain   RainRate  MonthRain
                          km/hr      km/hr          %         C         mm         C         C         mb       %/hr      C/hr      mm/hr      C/hr      C/hr      mm/hr         C         C         mm         mm         mm      mm/hr         mm
0:00               89          0          2         69       15.1     268.80       15.1        9.4    1021.68        4.0      -0.83      0.000      -0.83       0.12     -0.220       15.1       15.1       0.00       0.00       0.00      0.000      96.60
0:15               89          0          0         72       14.7     268.80       14.7        9.7    1021.61        5.7      -0.94      0.000      -0.94       0.37     -0.231       15.1       14.7       0.00       0.00       0.00      0.000      96.60
0:30               91          0          2         73       14.5     268.80       14.5        9.7    1021.55        5.4      -0.93      0.000      -0.93       0.28     -0.232       15.1       14.5       0.00       0.00       0.00      0.000      96.60
0:45               91          0          2         74       14.4     268.80       14.4        9.8    1021.61        5.0      -0.83      0.000      -0.83       0.28     -0.119       15.1       14.4       0.00       0.00       0.00      0.000      96.60
1:00               91          0          0         75       14.2     268.80       14.2        9.8    1021.51        4.7      -0.84      0.000      -0.84       0.20     -0.173       15.1       14.2       0.00       0.00       0.00      0.000      96.60
1:15               65          0          5         75       14.2     268.80       14.2        9.8    1021.41        3.7      -0.66      0.000      -0.66       0.15     -0.227       15.1       14.2       0.00       0.00       0.00      0.000      96.60
1:30               66          0          2         76       13.9     268.80       13.9        9.8    1021.17        3.9      -0.71      0.000      -0.71       0.12     -0.389       15.1       13.9       0.00       0.00       0.00      0.000      96.60
1:45               66          0          2         76       13.8     268.80       13.8        9.7    1021.07        3.0      -0.66      0.000      -0.66      -0.00     -0.396       15.1       13.8       0.00       0.00       0.00      0.000      96.60
2:00               66          0          0         77       13.5     268.80       13.5        9.6    1021.01        3.3      -0.81      0.000      -0.81      -0.11     -0.368       15.1       13.5       0.00       0.00       0.00      0.000      96.60
2:15               66          0          0         78       13.1     268.80       13.1        9.3    1020.90        3.5      -1.03      0.000      -1.03      -0.30     -0.376       15.1       13.1       0.00       0.00       0.00      0.000      96.60
2:30               66          0          0         79       12.6     268.80       12.6        9.0    1020.77        3.6      -1.24      0.000      -1.24      -0.49     -0.409       15.1       12.6       0.00       0.00       0.00      0.000      96.60
2:45               66          0          0         80       12.3     268.80       12.3        9.0    1020.67        3.6      -1.16      0.000      -1.16      -0.42     -0.408       15.1       12.3       0.00       0.00       0.00      0.000      96.60
3:00               66          0          2         80       12.2     268.80       12.2        8.8    1020.56        2.8      -1.05      0.000      -1.05      -0.47     -0.409       15.1       12.2       0.00       0.00       0.00      0.000      96.60
3:15               94          3          6         79       12.8     268.80       12.8        9.2    1020.33        1.2      -0.26      0.000      -0.26      -0.00     -0.532       15.1       12.2       0.00       0.00       0.00      0.000      96.60
3:30               84          2         10         75       13.5     268.80       13.5        9.2    1020.16       -2.6       0.42      0.000       0.43      -0.08     -0.568       15.1       12.2       0.00       0.00       0.00      0.000      96.60
3:45               98          0          5         74       13.6     268.80       13.6        9.0    1020.06       -2.8       0.35      0.000       0.36      -0.20     -0.538       15.1       12.2       0.00       0.00       0.00      0.000      96.60
4:00              111          5          6         75       13.3     268.80       13.3        9.0    1019.89       -1.3       0.08      0.000       0.09      -0.16     -0.563       15.1       12.2       0.00       0.00       0.00      0.000      96.60
4:15              101          0          8         75       13.3     268.80       13.3        8.9    1019.96       -0.9       0.01      0.000       0.02      -0.15     -0.369       15.1       12.2       0.00       0.00       0.00      0.000      96.60
4:30              101          0          0         77       12.4     268.80       12.4        8.5    1019.89        1.2      -0.74      0.000      -0.74      -0.48     -0.346       15.1       12.2       0.00       0.00       0.00      0.000      96.60
4:45              101          0          0         79       11.7     268.80       11.7        8.2    1019.79        2.7      -1.20      0.000      -1.20      -0.65     -0.359       15.1       11.7       0.00       0.00       0.00      0.000      96.60
5:00              101          0          0         80       11.3     268.80       11.3        8.0    1019.68        2.9      -1.33      0.000      -1.33      -0.73     -0.376       15.1       11.3       0.00       0.00       0.00      0.000      96.60
5:15              101          0          0         83       10.9     268.80       10.9        8.2    1019.68        4.9      -1.33      0.000      -1.32      -0.37     -0.291       15.1       10.9       0.00       0.00       0.00      0.000      96.60
5:30              101          0          0         84       10.7     268.80       10.7        8.1    1019.72        4.9      -1.27      0.000      -1.27      -0.35     -0.195       15.1       10.7       0.00       0.00       0.00      0.000      96.60
5:45              101          0          0         84       10.5     268.80       10.5        7.9    1019.58        3.8      -1.14      0.000      -1.14      -0.42     -0.263       15.1       10.5       0.00       0.00       0.00      0.000      96.60
6:00              100          0          0         84       10.2     268.80       10.2        7.6    1019.55        2.9      -1.20      0.000      -1.20      -0.63     -0.238       15.1       10.2       0.00       0.00       0.00      0.000      96.60

 


 

 

 

Retour accueil